Time;durP1;ratioP1;P1;durP2;ratioP2;P2;SDS_P1;SDS_P2;PMS_P1;PMS_P2;Temp;Humidity;BMP_temperature;BMP_pressure;BME280_temperature;BME280_humidity;BME280_pressure;Samples;Min_cycle;Max_cycle;Signal;HPM_P1;HPM_P2
2023/02/23 00:00:20;;;;;;;68.50;32.58;;;8.20;99.90;;;;;;5039921;28;20105;-71
2023/02/23 00:02:47;;;;;;;68.72;32.60;;;8.20;99.90;;;;;;5038827;28;20029;-71
2023/02/23 00:05:13;;;;;;;68.95;32.60;;;8.20;99.90;;;;;;5037407;28;20025;-73
2023/02/23 00:07:44;;;;;;;68.53;31.05;;;8.20;99.90;;;;;;5040118;28;20032;-72
2023/02/23 00:10:14;;;;;;;60.17;30.35;;;8.20;99.90;;;;;;5038351;28;20060;-71
2023/02/23 00:12:43;;;;;;;66.05;31.38;;;8.20;99.90;;;;;;5038288;28;20037;-73
2023/02/23 00:15:09;;;;;;;64.63;32.25;;;8.20;99.90;;;;;;5039657;28;20770;-70
2023/02/23 00:17:36;;;;;;;66.22;32.67;;;8.20;99.90;;;;;;5037878;28;20611;-71
2023/02/23 00:20:10;;;;;;;70.55;32.75;;;8.20;99.90;;;;;;5043383;28;20028;-69
2023/02/23 00:22:40;;;;;;;66.53;32.67;;;8.20;99.90;;;;;;5043323;28;20025;-69
2023/02/23 00:25:10;;;;;;;63.90;31.95;;;8.20;99.90;;;;;;5043626;28;20041;-72
2023/02/23 00:27:42;;;;;;;68.63;31.45;;;8.20;99.90;;;;;;5059082;28;20027;-70
2023/02/23 00:30:10;;;;;;;68.03;30.58;;;8.20;99.90;;;;;;5042951;28;20045;-72
2023/02/23 00:32:35;;;;;;;64.05;31.13;;;8.30;99.90;;;;;;5043555;28;20029;-70
2023/02/23 00:35:01;;;;;;;68.78;32.25;;;8.20;99.90;;;;;;5043729;28;20084;-72
2023/02/23 00:37:27;;;;;;;65.05;31.58;;;8.30;99.90;;;;;;5042157;28;20021;-71
2023/02/23 00:39:55;;;;;;;59.83;30.92;;;8.30;99.90;;;;;;5043620;28;20029;-70
2023/02/23 00:42:21;;;;;;;59.75;29.65;;;8.30;99.90;;;;;;5041842;28;20041;-70
2023/02/23 00:44:48;;;;;;;60.42;29.95;;;8.30;99.90;;;;;;5042199;28;20029;-72
2023/02/23 00:47:13;;;;;;;62.65;30.60;;;8.30;99.90;;;;;;5043613;28;20056;-72
2023/02/23 00:49:39;;;;;;;64.90;31.02;;;8.30;99.90;;;;;;5043688;28;20033;-71
2023/02/23 00:52:04;;;;;;;62.25;30.38;;;8.30;99.90;;;;;;5042343;28;20047;-70
2023/02/23 00:54:30;;;;;;;59.80;29.50;;;8.30;99.90;;;;;;5042259;28;20033;-70
2023/02/23 00:56:55;;;;;;;68.38;30.33;;;8.30;99.90;;;;;;5041517;28;20033;-70
2023/02/23 00:59:21;;;;;;;70.30;32.00;;;8.20;99.90;;;;;;5041727;28;20025;-70
2023/02/23 01:01:47;;;;;;;62.58;29.73;;;8.20;99.90;;;;;;5043461;28;20017;-71
2023/02/23 01:04:14;;;;;;;67.63;31.50;;;8.20;99.90;;;;;;5043038;28;20040;-71
2023/02/23 01:06:41;;;;;;;73.93;32.38;;;8.20;99.90;;;;;;5040189;28;20520;-70
2023/02/23 01:09:09;;;;;;;71.85;31.40;;;8.20;99.90;;;;;;5041972;28;20028;-71
2023/02/23 01:11:35;;;;;;;69.88;32.00;;;8.20;99.90;;;;;;5041698;28;20041;-73
2023/02/23 01:14:00;;;;;;;66.57;32.03;;;8.20;99.90;;;;;;5042039;28;20021;-71
2023/02/23 01:16:32;;;;;;;59.63;29.40;;;8.20;99.90;;;;;;5042826;28;20034;-70
2023/02/23 01:19:01;;;;;;;63.40;30.30;;;8.20;99.90;;;;;;5040737;28;20044;-71
2023/02/23 01:21:30;;;;;;;70.13;32.00;;;8.10;99.90;;;;;;5042198;28;20028;-73
2023/02/23 01:23:56;;;;;;;75.50;33.13;;;8.10;99.90;;;;;;5042305;28;20521;-72
2023/02/23 01:26:28;;;;;;;83.65;37.00;;;8.10;99.90;;;;;;5041182;28;20042;-71
2023/02/23 01:28:56;;;;;;;90.82;38.22;;;8.10;99.90;;;;;;5042478;28;20040;-71
2023/02/23 01:31:23;;;;;;;87.75;37.58;;;8.00;99.90;;;;;;5040873;28;20034;-71
2023/02/23 01:33:57;;;;;;;91.95;39.63;;;8.10;99.90;;;;;;5041243;28;20037;-71
2023/02/23 01:36:24;;;;;;;;;;;8.10;99.90;;;;;;5043148;28;20029;-70
2023/02/23 01:38:54;;;;;;;93.03;39.67;;;8.10;99.90;;;;;;5043537;28;19905;-72
2023/02/23 01:41:19;;;;;;;95.28;41.88;;;8.10;99.90;;;;;;5041445;28;20060;-71
2023/02/23 01:43:55;;;;;;;101.97;41.33;;;8.20;99.90;;;;;;5043006;28;20033;-75
2023/02/23 01:46:20;;;;;;;102.35;41.40;;;8.20;99.90;;;;;;5042919;28;20124;-73
2023/02/23 01:48:47;;;;;;;98.07;40.97;;;8.20;99.90;;;;;;5043246;28;20025;-73
2023/02/23 01:51:19;;;;;;;99.63;41.65;;;8.20;99.90;;;;;;5041723;28;20029;-72
2023/02/23 01:53:55;;;;;;;99.53;41.97;;;8.20;99.90;;;;;;5042748;28;20022;-71
2023/02/23 01:56:26;;;;;;;99.13;42.20;;;8.20;99.90;;;;;;5042565;28;20029;-74
2023/02/23 01:58:55;;;;;;;104.88;42.80;;;8.20;99.90;;;;;;5041402;28;20022;-71
2023/02/23 02:01:22;;;;;;;103.38;42.30;;;8.20;99.90;;;;;;5041636;28;20057;-70
2023/02/23 02:03:52;;;;;;;97.22;39.58;;;8.20;99.90;;;;;;5042395;28;20033;-71
2023/02/23 02:06:22;;;;;;;93.55;40.05;;;8.20;99.90;;;;;;5041384;28;20060;-72
2023/02/23 02:08:53;;;;;;;94.50;40.60;;;8.20;99.90;;;;;;5042828;28;20021;-71
2023/02/23 02:11:35;;;;;;;97.88;41.22;;;8.20;99.90;;;;;;5042010;28;20113;-71
2023/02/23 02:14:17;;;;;;;96.80;40.35;;;8.20;99.90;;;;;;5041160;28;20092;-72
2023/02/23 02:17:24;;;;;;;105.93;41.40;;;8.20;99.90;;;;;;5042977;28;20494;-72
2023/02/23 02:20:13;;;;;;;98.68;39.97;;;8.20;99.90;;;;;;5040729;28;20037;-73
2023/02/23 02:22:53;;;;;;;98.82;39.70;;;8.20;99.90;;;;;;5042795;28;20051;-72
2023/02/23 02:25:48;;;;;;;100.93;40.15;;;8.20;99.90;;;;;;5040365;28;20034;-73
2023/02/23 02:28:40;;;;;;;105.45;40.92;;;8.10;99.90;;;;;;5042318;28;20033;-72
2023/02/23 02:31:42;;;;;;;97.07;39.17;;;8.10;99.90;;;;;;5042608;28;20034;-72
2023/02/23 02:34:21;;;;;;;102.40;41.17;;;8.10;99.90;;;;;;5042415;28;20018;-71
2023/02/23 02:37:10;;;;;;;91.55;39.17;;;8.20;99.90;;;;;;5042107;28;20033;-73
2023/02/23 02:39:39;;;;;;;91.57;39.63;;;8.20;99.90;;;;;;5042169;28;20044;-72
2023/02/23 02:42:10;;;;;;;103.93;41.15;;;8.20;99.90;;;;;;5040312;28;20166;-71
2023/02/23 02:44:58;;;;;;;99.07;39.28;;;8.20;99.90;;;;;;5042235;28;20033;-73
2023/02/23 02:47:31;;;;;;;103.47;41.80;;;8.20;99.90;;;;;;5039844;28;20033;-74
2023/02/23 02:50:30;;;;;;;104.30;40.83;;;8.20;99.90;;;;;;5040685;28;20041;-74
2023/02/23 02:53:13;;;;;;;93.63;40.97;;;8.20;99.90;;;;;;5034189;28;20037;-71
2023/02/23 02:55:42;;;;;;;94.55;39.38;;;8.30;99.90;;;;;;5041997;28;20088;-71
2023/02/23 02:58:10;;;;;;;102.07;40.58;;;8.30;99.90;;;;;;5057279;28;20033;-72
2023/02/23 04:19:01;;;;;;;121.60;43.80;;;8.30;99.90;;;;;;5040953;28;20021;-73
2023/02/23 04:21:27;;;;;;;115.53;43.60;;;8.30;99.90;;;;;;5040387;28;20101;-71
2023/02/23 04:23:52;;;;;;;127.35;45.90;;;8.30;99.90;;;;;;5039363;28;20097;-73
2023/02/23 04:26:18;;;;;;;117.57;43.28;;;8.30;99.90;;;;;;5039155;28;20049;-71
2023/02/23 04:28:43;;;;;;;122.18;43.50;;;8.20;99.90;;;;;;5039673;28;20048;-70
2023/02/23 04:31:09;;;;;;;115.68;44.92;;;8.20;99.90;;;;;;5039814;28;20042;-73
2023/02/23 04:33:35;;;;;;;127.70;45.10;;;8.20;99.90;;;;;;5039601;28;20039;-70
2023/02/23 04:36:00;;;;;;;116.10;44.20;;;8.20;99.90;;;;;;5037752;28;20101;-73
2023/02/23 04:38:26;;;;;;;118.00;44.47;;;8.20;99.90;;;;;;5040458;28;20036;-73
2023/02/23 04:40:51;;;;;;;134.07;45.17;;;8.20;99.90;;;;;;5040542;28;20029;-72
2023/02/23 04:43:17;;;;;;;126.65;44.30;;;8.20;99.90;;;;;;5040497;28;20033;-72
2023/02/23 04:45:43;;;;;;;123.55;43.75;;;8.30;99.90;;;;;;5040480;28;20079;-73
2023/02/23 04:48:09;;;;;;;113.70;43.22;;;8.20;99.90;;;;;;5039367;28;20022;-70
2023/02/23 04:50:34;;;;;;;120.65;45.53;;;8.20;99.90;;;;;;5039262;28;20037;-72
2023/02/23 04:53:00;;;;;;;120.53;43.35;;;8.20;99.90;;;;;;5040703;28;20033;-71
2023/02/23 04:55:25;;;;;;;132.60;43.45;;;8.20;99.90;;;;;;5038911;28;20026;-72
2023/02/23 04:57:57;;;;;;;120.65;44.47;;;8.20;99.90;;;;;;5040556;28;20029;-72
2023/02/23 05:00:26;;;;;;;124.60;43.97;;;8.20;99.90;;;;;;5040207;28;20022;-74
2023/02/23 05:02:52;;;;;;;123.25;42.85;;;8.20;99.90;;;;;;5039183;28;20077;-71
2023/02/23 05:05:18;;;;;;;119.57;42.50;;;8.30;99.90;;;;;;5043102;28;20025;-72
2023/02/23 05:07:44;;;;;;;116.95;41.85;;;8.30;99.90;;;;;;5042783;28;20080;-73
2023/02/23 05:10:10;;;;;;;120.30;42.45;;;8.30;99.90;;;;;;5042406;28;20025;-71
2023/02/23 05:12:36;;;;;;;122.35;40.88;;;8.30;99.90;;;;;;5043051;28;20341;-71
2023/02/23 05:15:01;;;;;;;127.15;43.10;;;8.30;99.90;;;;;;5043824;28;20030;-71
2023/02/23 05:17:27;;;;;;;111.60;40.58;;;8.30;99.90;;;;;;5043549;28;20021;-72
2023/02/23 05:19:53;;;;;;;127.38;42.90;;;8.20;99.90;;;;;;5044015;28;20018;-74
2023/02/23 05:22:21;;;;;;;115.18;42.00;;;8.20;99.90;;;;;;5042489;28;21046;-72
2023/02/23 05:24:47;;;;;;;120.78;41.88;;;8.20;99.90;;;;;;5043428;28;20045;-73
2023/02/23 05:27:14;;;;;;;119.93;41.55;;;8.20;99.90;;;;;;5042164;28;20038;-73
2023/02/23 05:29:40;;;;;;;109.57;40.15;;;8.20;99.90;;;;;;5042448;28;20402;-73
2023/02/23 05:32:06;;;;;;;115.97;40.85;;;8.20;99.90;;;;;;5043681;28;20045;-72
2023/02/23 05:34:32;;;;;;;115.28;42.08;;;8.10;99.90;;;;;;5043220;28;20018;-73
2023/02/23 05:36:58;;;;;;;120.78;41.05;;;8.10;99.90;;;;;;5042421;28;20056;-74
2023/02/23 05:39:23;;;;;;;129.95;42.05;;;8.10;99.90;;;;;;5043348;28;20034;-73
2023/02/23 05:41:49;;;;;;;127.72;41.30;;;8.10;99.90;;;;;;5042089;28;20021;-75
2023/02/23 05:44:15;;;;;;;125.10;42.40;;;8.10;99.90;;;;;;5043641;28;20052;-74
2023/02/23 05:46:40;;;;;;;129.05;40.88;;;8.10;99.90;;;;;;5042226;28;20504;-76
2023/02/23 05:49:06;;;;;;;126.43;41.78;;;8.10;99.90;;;;;;5042477;28;20030;-75
2023/02/23 05:51:33;;;;;;;124.35;42.13;;;8.10;99.90;;;;;;5041773;28;20064;-75
2023/02/23 05:53:59;;;;;;;144.68;45.10;;;8.10;99.90;;;;;;5042505;28;20097;-76
2023/02/23 05:56:25;;;;;;;138.30;43.53;;;8.10;99.90;;;;;;5041545;28;20051;-75
2023/02/23 05:58:54;;;;;;;153.15;46.95;;;8.00;99.90;;;;;;5041507;28;20049;-76
2023/02/23 06:01:20;;;;;;;143.57;44.35;;;8.00;99.90;;;;;;5058199;28;20026;-78
2023/02/23 06:03:47;;;;;;;149.70;46.33;;;8.00;99.90;;;;;;5041010;28;20049;-78
2023/02/23 06:06:14;;;;;;;163.25;48.13;;;8.00;99.90;;;;;;5041701;28;20033;-75
2023/02/23 06:08:40;;;;;;;162.35;48.22;;;8.00;99.90;;;;;;5040970;28;20029;-77
2023/02/23 06:11:06;;;;;;;175.70;48.33;;;7.90;99.90;;;;;;5041219;28;20030;-77
2023/02/23 06:13:32;;;;;;;174.85;49.08;;;7.80;99.90;;;;;;5042843;28;20429;-75
2023/02/23 06:15:58;;;;;;;172.50;48.55;;;7.90;99.90;;;;;;5041967;28;20021;-78
2023/02/23 06:18:24;;;;;;;172.85;49.30;;;7.80;99.90;;;;;;5041414;28;20029;-79
2023/02/23 06:20:50;;;;;;;171.65;48.42;;;7.80;99.90;;;;;;5041183;28;20494;-79
2023/02/23 06:23:16;;;;;;;179.27;49.58;;;7.80;99.90;;;;;;5041375;28;20037;-75
2023/02/23 06:25:46;;;;;;;179.50;50.42;;;7.80;99.90;;;;;;5042773;28;20041;-78
2023/02/23 06:28:12;;;;;;;181.43;51.13;;;7.80;99.90;;;;;;5042872;28;20041;-76
2023/02/23 06:30:38;;;;;;;186.57;51.53;;;7.70;99.90;;;;;;5057904;28;20041;-75
2023/02/23 06:33:05;;;;;;;180.60;51.60;;;7.80;99.90;;;;;;5042781;28;20066;-76
2023/02/23 06:35:32;;;;;;;175.88;50.83;;;7.80;99.90;;;;;;5041610;28;20037;-79
2023/02/23 06:37:58;;;;;;;178.63;51.80;;;7.70;99.90;;;;;;5042695;28;20482;-76
2023/02/23 06:40:24;;;;;;;184.23;52.45;;;7.70;99.90;;;;;;5041757;28;20033;-74
2023/02/23 06:42:50;;;;;;;178.50;52.20;;;7.70;99.90;;;;;;5039156;28;20046;-75
2023/02/23 06:45:18;;;;;;;179.10;50.72;;;7.70;99.90;;;;;;5041249;28;20053;-76
2023/02/23 06:47:44;;;;;;;182.80;50.08;;;7.70;99.90;;;;;;5041383;28;20021;-74
2023/02/23 06:50:10;;;;;;;174.25;52.10;;;7.70;99.90;;;;;;5040957;28;20040;-74
2023/02/23 06:52:36;;;;;;;172.73;50.50;;;7.70;99.90;;;;;;5041303;28;20038;-73
2023/02/23 06:55:02;;;;;;;173.18;51.95;;;7.70;99.90;;;;;;5042131;28;20018;-74
2023/02/23 06:57:28;;;;;;;180.70;51.55;;;7.70;99.90;;;;;;5040424;28;20348;-76
2023/02/23 06:59:53;;;;;;;180.50;50.53;;;7.80;99.90;;;;;;5040753;28;20080;-74
2023/02/23 07:02:19;;;;;;;173.70;52.28;;;7.80;99.90;;;;;;5040269;28;20017;-76
2023/02/23 07:04:44;;;;;;;170.52;50.28;;;7.80;99.90;;;;;;5041324;28;20552;-75
2023/02/23 07:07:11;;;;;;;175.30;50.17;;;7.80;99.90;;;;;;5040506;28;20467;-75
2023/02/23 07:09:39;;;;;;;171.52;51.85;;;7.70;99.90;;;;;;5041663;28;20017;-75
2023/02/23 07:12:04;;;;;;;174.82;51.47;;;7.80;99.90;;;;;;5036596;28;20037;-74
2023/02/23 07:14:34;;;;;;;180.23;53.78;;;7.80;99.90;;;;;;5042110;28;20104;-76
2023/02/23 07:16:59;;;;;;;186.45;52.80;;;7.80;99.90;;;;;;5041551;28;20027;-74
2023/02/23 07:19:25;;;;;;;185.20;52.90;;;7.80;99.90;;;;;;5041458;28;20037;-74
2023/02/23 07:21:50;;;;;;;176.70;51.25;;;7.80;99.90;;;;;;5041619;28;20498;-75
2023/02/23 07:24:16;;;;;;;163.55;51.00;;;7.70;99.90;;;;;;5041685;28;20021;-73
2023/02/23 07:26:46;;;;;;;170.20;51.78;;;7.80;99.90;;;;;;5042204;28;20025;-74
2023/02/23 07:29:12;;;;;;;175.18;50.70;;;7.80;99.90;;;;;;5039115;28;20029;-75
2023/02/23 07:31:38;;;;;;;168.05;50.13;;;7.80;99.90;;;;;;5039269;28;20553;-75
2023/02/23 07:34:03;;;;;;;186.52;53.15;;;7.80;99.90;;;;;;5041333;28;20049;-75
2023/02/23 07:36:29;;;;;;;186.85;54.67;;;7.80;99.90;;;;;;5040400;28;20386;-76
2023/02/23 07:38:54;;;;;;;179.95;52.05;;;7.80;99.90;;;;;;5039016;28;20063;-74
2023/02/23 07:41:21;;;;;;;183.27;53.03;;;7.80;99.90;;;;;;5039278;28;20028;-76
2023/02/23 07:43:46;;;;;;;189.73;53.63;;;7.80;99.90;;;;;;5037899;28;20032;-74
2023/02/23 07:46:14;;;;;;;174.45;52.58;;;7.80;99.90;;;;;;5041401;28;20058;-73
2023/02/23 07:48:43;;;;;;;184.65;53.53;;;7.80;99.90;;;;;;5040549;28;20846;-76
2023/02/23 07:51:11;;;;;;;186.63;54.33;;;7.80;99.90;;;;;;5041527;28;20021;-75
2023/02/23 07:53:38;;;;;;;180.57;52.35;;;7.90;99.90;;;;;;5037077;28;20073;-75
2023/02/23 07:56:04;;;;;;;187.27;54.63;;;7.80;99.90;;;;;;5030822;28;20470;-75
2023/02/23 07:58:30;;;;;;;181.98;53.78;;;7.80;99.90;;;;;;5037038;28;20033;-75
2023/02/23 08:00:56;;;;;;;189.48;54.33;;;7.80;99.90;;;;;;5033771;28;20372;-76
2023/02/23 08:03:22;;;;;;;184.80;54.22;;;7.80;99.90;;;;;;5040007;28;20021;-74
2023/02/23 08:05:48;;;;;;;180.90;51.83;;;7.80;99.90;;;;;;5041099;28;20013;-76
2023/02/23 08:08:13;;;;;;;185.80;53.80;;;7.80;99.90;;;;;;5038012;28;20060;-73
2023/02/23 08:10:39;;;;;;;187.48;53.00;;;7.80;99.90;;;;;;5035945;28;20063;-73
2023/02/23 08:13:05;;;;;;;193.25;54.92;;;7.80;99.90;;;;;;5037161;28;20128;-74
2023/02/23 08:15:30;;;;;;;203.43;56.05;;;7.80;99.90;;;;;;5038624;28;20026;-72
2023/02/23 08:17:56;;;;;;;191.32;53.90;;;7.80;99.90;;;;;;5040750;28;20108;-72
2023/02/23 08:20:24;;;;;;;182.13;51.85;;;7.80;99.90;;;;;;5039031;28;20470;-74
2023/02/23 08:22:57;;;;;;;183.02;53.88;;;7.90;99.90;;;;;;5035471;28;20052;-75
2023/02/23 08:25:23;;;;;;;185.57;54.38;;;7.90;99.90;;;;;;5035222;28;20123;-73
2023/02/23 08:27:50;;;;;;;188.20;52.70;;;7.90;99.90;;;;;;5039717;28;20049;-73
2023/02/23 08:30:18;;;;;;;184.48;54.30;;;7.90;99.90;;;;;;5039742;28;20041;-74
2023/02/23 08:32:43;;;;;;;184.20;55.28;;;7.90;99.90;;;;;;5041060;28;20101;-73
2023/02/23 08:35:09;;;;;;;207.43;55.92;;;7.90;99.90;;;;;;5040437;28;20049;-74
2023/02/23 08:37:35;;;;;;;194.68;54.60;;;8.00;99.90;;;;;;5038572;28;20571;-74
2023/02/23 08:40:01;;;;;;;218.25;55.95;;;7.90;99.90;;;;;;5041925;28;20052;-72
2023/02/23 08:42:27;;;;;;;219.55;56.58;;;8.00;99.90;;;;;;5041637;28;20097;-73
2023/02/23 08:44:53;;;;;;;197.68;54.00;;;8.00;99.90;;;;;;5056261;28;20056;-75
2023/02/23 08:47:23;;;;;;;210.18;55.55;;;8.00;99.90;;;;;;5043667;28;20466;-75
2023/02/23 08:49:54;;;;;;;200.60;56.60;;;8.00;99.90;;;;;;5043224;28;20032;-76
2023/02/23 08:52:20;;;;;;;192.70;54.92;;;8.00;99.90;;;;;;5044244;28;20112;-73
2023/02/23 08:54:46;;;;;;;193.77;54.67;;;8.00;99.90;;;;;;5041952;28;20073;-72
2023/02/23 08:57:12;;;;;;;220.77;57.30;;;8.00;99.90;;;;;;5040382;28;20085;-74
2023/02/23 08:59:38;;;;;;;193.45;53.22;;;8.00;99.90;;;;;;5044456;28;20075;-75
2023/02/23 09:02:12;;;;;;;195.50;55.05;;;8.00;99.90;;;;;;5043962;28;20021;-75
2023/02/23 09:04:40;;;;;;;211.98;50.80;;;8.00;99.90;;;;;;5044191;28;20351;-75
2023/02/23 09:07:06;;;;;;;232.07;54.30;;;8.00;99.90;;;;;;5043622;28;20036;-73
2023/02/23 09:09:33;;;;;;;234.20;56.33;;;8.00;99.90;;;;;;5043702;28;20022;-73
2023/02/23 09:11:58;;;;;;;255.80;57.20;;;7.90;99.90;;;;;;5042001;28;20029;-72
2023/02/23 09:14:24;;;;;;;247.20;55.55;;;7.90;99.90;;;;;;5044618;28;20135;-71
2023/02/23 09:16:49;;;;;;;249.57;55.22;;;8.00;99.90;;;;;;5042795;28;20056;-73
2023/02/23 09:19:15;;;;;;;237.50;53.03;;;8.00;99.90;;;;;;5043312;28;20022;-73
2023/02/23 09:21:43;;;;;;;249.65;53.63;;;8.00;99.90;;;;;;5043924;28;20026;-75
2023/02/23 09:24:08;;;;;;;256.95;55.33;;;8.00;99.90;;;;;;5057345;28;20041;-74
2023/02/23 09:26:39;;;;;;;238.23;54.20;;;8.00;99.90;;;;;;5042674;28;20050;-73
2023/02/23 09:29:06;;;;;;;230.80;52.88;;;8.00;99.90;;;;;;5041413;28;20079;-73
2023/02/23 09:31:32;;;;;;;268.52;55.35;;;8.00;99.90;;;;;;5043106;28;20037;-73
2023/02/23 09:34:01;;;;;;;230.57;52.08;;;8.00;99.90;;;;;;5043052;28;20057;-74
2023/02/23 09:36:28;;;;;;;224.82;51.08;;;8.00;99.90;;;;;;5044190;28;20017;-74
2023/02/23 09:38:56;;;;;;;208.32;51.30;;;8.00;99.90;;;;;;5043237;28;20057;-72
2023/02/23 09:41:28;;;;;;;220.70;48.97;;;8.10;99.90;;;;;;5041962;28;20085;-75
2023/02/23 09:44:09;;;;;;;199.00;47.95;;;8.10;99.90;;;;;;5043108;28;20470;-73
2023/02/23 09:46:42;;;;;;;201.15;48.63;;;8.10;99.90;;;;;;5041310;28;20064;-74
2023/02/23 09:49:16;;;;;;;188.57;45.55;;;8.10;99.90;;;;;;5037767;28;20038;-75
2023/02/23 09:51:52;;;;;;;169.25;43.10;;;8.20;99.90;;;;;;5039077;28;20097;-73
2023/02/23 09:54:21;;;;;;;148.23;43.17;;;8.10;99.90;;;;;;5039241;28;20044;-74
2023/02/23 09:56:48;;;;;;;143.45;41.50;;;8.10;99.90;;;;;;5041724;28;20534;-72
2023/02/23 09:59:17;;;;;;;146.70;40.97;;;8.10;99.90;;;;;;5035061;28;20159;-74
2023/02/23 10:01:51;;;;;;;163.30;43.28;;;8.10;99.90;;;;;;5039435;28;20037;-74
2023/02/23 10:04:22;;;;;;;154.20;41.72;;;8.10;99.90;;;;;;5037484;28;20037;-75
2023/02/23 10:07:12;;;;;;;146.80;42.88;;;8.10;99.90;;;;;;5038273;28;20021;-74
2023/02/23 10:09:46;;;;;;;149.73;41.25;;;8.10;99.90;;;;;;5039624;28;20033;-73
2023/02/23 10:12:43;;;;;;;159.93;40.75;;;8.20;99.90;;;;;;5042172;28;20041;-75
2023/02/23 10:15:15;;;;;;;140.35;39.90;;;8.10;99.90;;;;;;5040261;28;20184;-76
2023/02/23 10:18:01;;;;;;;143.35;39.88;;;8.10;99.90;;;;;;5041806;28;20064;-74
2023/02/23 10:20:45;;;;;;;135.82;38.90;;;8.10;99.90;;;;;;5040418;28;20037;-73
2023/02/23 10:23:42;;;;;;;136.10;39.40;;;8.10;99.90;;;;;;5039806;28;20025;-76
2023/02/23 10:26:15;;;;;;;145.93;40.60;;;8.10;99.90;;;;;;5038242;28;20061;-75
2023/02/23 10:28:41;;;;;;;143.18;38.22;;;8.10;99.90;;;;;;5038887;28;20041;-75
2023/02/23 10:31:30;;;;;;;138.10;39.40;;;8.20;99.90;;;;;;5037188;28;20060;-75
2023/02/23 10:34:01;;;;;;;141.30;40.40;;;8.20;99.90;;;;;;5038003;28;20025;-76
2023/02/23 10:36:44;;;;;;;123.50;38.55;;;8.20;99.90;;;;;;5039582;28;20037;-75
2023/02/23 10:39:12;;;;;;;128.55;38.80;;;8.30;99.90;;;;;;5038664;28;20083;-75
2023/02/23 10:41:38;;;;;;;123.68;39.00;;;8.30;99.90;;;;;;5033167;28;20032;-76
2023/02/23 10:44:06;;;;;;;133.57;39.05;;;8.20;99.90;;;;;;5035626;28;20025;-75
2023/02/23 10:46:42;;;;;;;144.48;40.80;;;8.20;99.90;;;;;;5038273;28;20030;-73
2023/02/23 10:49:28;;;;;;;153.63;40.97;;;8.20;99.90;;;;;;5041601;28;20029;-74
2023/02/23 10:51:57;;;;;;;145.40;41.35;;;8.20;99.90;;;;;;5038664;28;20045;-75
2023/02/23 10:54:42;;;;;;;143.68;40.53;;;8.20;99.90;;;;;;5038307;28;20021;-74
2023/02/23 10:57:12;;;;;;;139.32;40.13;;;8.20;99.90;;;;;;5038018;28;20083;-73
2023/02/23 10:59:58;;;;;;;174.63;42.78;;;8.20;99.90;;;;;;5038328;28;20030;-73
2023/02/23 11:02:25;;;;;;;152.77;40.40;;;8.20;99.90;;;;;;5036102;28;20056;-75
2023/02/23 11:04:56;;;;;;;150.02;39.40;;;8.20;99.90;;;;;;5040074;28;20048;-73
2023/02/23 11:07:28;;;;;;;158.65;38.17;;;8.10;99.90;;;;;;5035707;28;20040;-73
2023/02/23 11:09:55;;;;;;;162.43;37.72;;;8.10;99.90;;;;;;5039726;28;20025;-77
2023/02/23 11:12:28;;;;;;;160.77;35.85;;;8.00;99.90;;;;;;5035413;28;20047;-75
2023/02/23 11:14:57;;;;;;;150.55;36.08;;;8.00;99.90;;;;;;5037184;28;20033;-75
2023/02/23 11:17:43;;;;;;;172.40;36.38;;;8.00;99.90;;;;;;5054897;28;20025;-74
2023/02/23 11:20:37;;;;;;;169.13;35.97;;;8.00;99.90;;;;;;5038883;28;20546;-75
2023/02/23 11:23:27;;;;;;;164.43;39.42;;;8.00;99.90;;;;;;5038990;28;20056;-75
2023/02/23 11:25:58;;;;;;;205.70;43.28;;;8.00;99.90;;;;;;5038650;28;21615;-73
2023/02/23 11:28:29;;;;;;;235.23;48.90;;;8.00;99.90;;;;;;5037368;28;20072;-72
2023/02/23 11:31:03;;;;;;;232.38;50.60;;;8.00;99.90;;;;;;5040272;28;20033;-73
2023/02/23 11:33:34;;;;;;;234.18;53.40;;;8.00;99.90;;;;;;5038876;28;20037;-72
2023/02/23 11:36:15;;;;;;;244.77;54.60;;;7.90;99.90;;;;;;5040775;28;20076;-72
2023/02/23 11:38:41;;;;;;;248.95;57.08;;;7.90;99.90;;;;;;5039793;28;20099;-73
2023/02/23 11:41:19;;;;;;;240.18;54.28;;;7.90;99.90;;;;;;5041668;28;20475;-73
2023/02/23 11:43:50;;;;;;;239.75;53.90;;;7.90;99.90;;;;;;5040366;28;20038;-73
2023/02/23 11:46:20;;;;;;;251.27;54.65;;;7.90;99.90;;;;;;5035278;28;20089;-72
2023/02/23 11:49:04;;;;;;;247.73;54.95;;;8.00;99.90;;;;;;5039422;28;20025;-72
2023/02/23 11:51:45;;;;;;;258.80;56.65;;;8.00;99.90;;;;;;5038971;28;20041;-75
2023/02/23 11:54:37;;;;;;;265.77;56.30;;;8.10;99.90;;;;;;5040680;28;20021;-75
2023/02/23 11:57:18;;;;;;;231.40;52.33;;;8.10;99.90;;;;;;5036582;28;20037;-73
2023/02/23 11:59:44;;;;;;;243.55;53.90;;;8.00;99.90;;;;;;5034586;28;20038;-74
2023/02/23 12:02:16;;;;;;;233.18;53.63;;;8.00;99.90;;;;;;5038339;28;20036;-73
2023/02/23 12:04:46;;;;;;;243.30;56.30;;;8.00;99.90;;;;;;5035731;28;20029;-73
2023/02/23 12:07:42;;;;;;;225.43;53.65;;;7.90;99.90;;;;;;5037678;28;20025;-72
2023/02/23 12:10:31;;;;;;;212.35;52.85;;;7.80;99.90;;;;;;5038868;28;20512;-72
2023/02/23 12:13:07;;;;;;;199.93;50.80;;;7.80;99.90;;;;;;5036103;28;20059;-71
2023/02/23 12:15:45;;;;;;;198.48;49.33;;;7.70;99.90;;;;;;5042472;28;20049;-72
2023/02/23 12:18:40;;;;;;;187.15;47.80;;;7.70;99.90;;;;;;5042143;28;20025;-74
2023/02/23 12:21:14;;;;;;;170.15;45.20;;;7.70;99.90;;;;;;5043779;28;20430;-74
2023/02/23 12:23:42;;;;;;;;;;;7.60;99.90;;;;;;5044315;28;20039;-73
2023/02/23 12:26:20;;;;;;;179.60;45.30;;;7.70;99.90;;;;;;5040652;28;19948;-71
2023/02/23 12:28:57;;;;;;;165.88;45.40;;;7.70;99.90;;;;;;5041144;28;20030;-72
2023/02/23 12:31:27;;;;;;;169.55;44.70;;;7.70;99.90;;;;;;5034948;28;20033;-72
2023/02/23 12:34:00;;;;;;;154.95;42.80;;;7.80;99.90;;;;;;5041700;28;20022;-73
2023/02/23 12:36:37;;;;;;;157.85;41.63;;;7.80;99.90;;;;;;5042442;28;20145;-72
2023/02/23 12:39:16;;;;;;;152.57;40.50;;;7.80;99.90;;;;;;5039689;28;20433;-73
2023/02/23 12:42:13;;;;;;;152.60;42.25;;;7.80;99.90;;;;;;5043827;28;20048;-75
2023/02/23 12:44:54;;;;;;;146.32;39.90;;;7.80;99.90;;;;;;5040845;28;20037;-72
2023/02/23 12:48:05;;;;;;;136.98;39.45;;;7.80;99.90;;;;;;5040806;28;20029;-73
2023/02/23 12:50:52;;;;;;;142.80;40.75;;;7.80;99.90;;;;;;5046210;28;20040;-72
2023/02/23 12:53:38;;;;;;;136.68;37.80;;;7.90;99.90;;;;;;5042716;28;20034;-72
2023/02/23 12:56:18;;;;;;;123.22;35.83;;;8.00;99.90;;;;;;5040333;28;20462;-73
2023/02/23 12:59:14;;;;;;;117.65;35.42;;;8.10;99.90;;;;;;5041598;28;20034;-74
2023/02/23 13:01:53;;;;;;;120.70;36.25;;;8.20;99.90;;;;;;5040423;28;20026;-71
2023/02/23 13:04:40;;;;;;;113.00;32.95;;;8.30;99.90;;;;;;5037770;28;20017;-75
2023/02/23 13:07:44;;;;;;;121.60;35.10;;;8.40;99.90;;;;;;5037122;28;20030;-72
2023/02/23 13:10:37;;;;;;;113.45;34.70;;;8.50;99.90;;;;;;5036685;28;20096;-72
2023/02/23 13:13:15;;;;;;;106.85;31.88;;;8.70;99.90;;;;;;5037621;28;20450;-74
2023/02/23 13:16:09;;;;;;;109.28;34.00;;;8.80;99.90;;;;;;5037173;28;20029;-77
2023/02/23 13:18:41;;;;;;;114.03;33.47;;;8.80;99.90;;;;;;5037765;28;20093;-72
2023/02/23 13:21:19;;;;;;;105.53;33.28;;;8.90;99.90;;;;;;5037209;28;20072;-70
2023/02/23 13:24:00;;;;;;;107.97;32.97;;;9.00;99.90;;;;;;5037914;28;20021;-74
2023/02/23 13:26:37;;;;;;;105.47;32.53;;;8.90;99.90;;;;;;5036667;28;20043;-73
2023/02/23 13:29:17;;;;;;;102.93;30.60;;;8.80;99.90;;;;;;5040929;28;20025;-74
2023/02/23 13:31:43;;;;;;;101.85;31.83;;;8.70;99.90;;;;;;5042442;28;20037;-75
2023/02/23 13:34:32;;;;;;;107.88;32.50;;;8.60;99.90;;;;;;5041948;28;20551;-71
2023/02/23 13:37:01;;;;;;;108.10;31.80;;;8.70;99.90;;;;;;5041454;28;20096;-71
2023/02/23 13:39:39;;;;;;;101.20;30.98;;;8.60;99.90;;;;;;5042015;28;20026;-73
2023/02/23 13:42:25;;;;;;;110.07;31.50;;;8.60;99.90;;;;;;5043253;28;20802;-72
2023/02/23 13:45:00;;;;;;;102.90;30.55;;;8.60;99.90;;;;;;5042490;28;20052;-73
2023/02/23 13:47:35;;;;;;;95.75;30.15;;;8.50;99.90;;;;;;5041806;28;20032;-73
2023/02/23 13:50:21;;;;;;;110.15;30.02;;;8.50;99.90;;;;;;5040958;28;20052;-71
2023/02/23 13:52:48;;;;;;;103.13;30.98;;;8.50;99.90;;;;;;5040919;28;20068;-70
2023/02/23 13:55:35;;;;;;;99.38;29.60;;;8.40;99.90;;;;;;5043224;28;20030;-75
2023/02/23 13:58:05;;;;;;;103.03;30.63;;;8.40;99.90;;;;;;5042885;28;20029;-72
2023/02/23 14:00:33;;;;;;;106.50;31.40;;;8.50;99.90;;;;;;5041938;28;20680;-70
2023/02/23 14:03:04;;;;;;;101.03;30.08;;;8.50;99.90;;;;;;5039348;28;20028;-70
2023/02/23 14:05:40;;;;;;;94.00;28.08;;;8.50;99.90;;;;;;5040367;28;20032;-71
2023/02/23 14:08:06;;;;;;;96.65;27.60;;;8.60;99.90;;;;;;5041879;28;20052;-71
2023/02/23 14:10:44;;;;;;;87.40;25.92;;;8.60;99.90;;;;;;5041970;28;20112;-72